createdAt,value
2022-11-19T00:01:24.273Z,-0.90
2022-11-19T00:03:53.171Z,-1.10
2022-11-19T00:06:22.713Z,-0.80
2022-11-19T00:08:49.644Z,-1.10
2022-11-19T00:11:38.069Z,-1.50
2022-11-19T00:14:05.400Z,-1.50
2022-11-19T00:21:26.869Z,-1.50
2022-11-19T00:23:54.827Z,-1.30
2022-11-19T00:26:22.540Z,-0.10
2022-11-19T00:31:17.834Z,-1.30
2022-11-19T00:33:46.096Z,-1.50
2022-11-19T00:36:15.470Z,-1.60
2022-11-19T00:38:42.796Z,-1.30
2022-11-19T00:41:09.867Z,-1.40
2022-11-19T00:46:28.869Z,-1.70
2022-11-19T00:48:58.055Z,-1.80
2022-11-19T00:51:29.136Z,-1.60
2022-11-19T00:53:57.028Z,-1.60
2022-11-19T00:56:25.645Z,-1.60
2022-11-19T00:58:53.113Z,-1.60
2022-11-19T01:01:22.646Z,-1.80
2022-11-19T01:06:19.871Z,-1.60
2022-11-19T01:08:51.557Z,-1.50
2022-11-19T01:11:30.588Z,-1.40
2022-11-19T01:13:59.008Z,-1.70
2022-11-19T01:16:27.147Z,-1.50
2022-11-19T01:18:54.122Z,-1.40
2022-11-19T01:21:22.859Z,-1.60
2022-11-19T01:23:50.340Z,-1.40
2022-11-19T01:26:18.711Z,-2.20
2022-11-19T01:28:46.553Z,-1.30
2022-11-19T01:31:22.277Z,-1.40
2022-11-19T01:33:49.404Z,-1.40
2022-11-19T01:36:19.005Z,-1.50
2022-11-19T01:41:21.902Z,-1.60
2022-11-19T01:43:53.652Z,-1.60
2022-11-19T01:46:23.081Z,-1.50
2022-11-19T01:49:02.136Z,-1.40
2022-11-19T01:51:47.238Z,-1.60
2022-11-19T01:54:39.512Z,-1.60
2022-11-19T01:57:10.588Z,-1.70
2022-11-19T01:59:38.544Z,-0.70
2022-11-19T02:02:05.979Z,-1.70
2022-11-19T02:09:29.181Z,-1.60
2022-11-19T02:12:15.063Z,-1.80
2022-11-19T02:17:38.229Z,-1.80
2022-11-19T02:20:23.861Z,-1.70
2022-11-19T02:23:02.191Z,-1.40
2022-11-19T02:25:41.523Z,-1.40
2022-11-19T02:28:32.204Z,-1.40
2022-11-19T02:31:17.072Z,-1.40
2022-11-19T02:34:09.544Z,-1.30
2022-11-19T02:36:44.613Z,-1.50
2022-11-19T02:39:33.367Z,-1.40
2022-11-19T02:42:20.109Z,-1.50
2022-11-19T02:44:58.800Z,-1.50
2022-11-19T02:47:52.613Z,-1.50
2022-11-19T02:50:30.324Z,-1.30
2022-11-19T02:52:57.726Z,-1.50
2022-11-19T02:57:54.800Z,-1.70
2022-11-19T03:00:41.211Z,-1.60
2022-11-19T03:03:36.578Z,-1.90
2022-11-19T03:06:20.098Z,-1.60
2022-11-19T03:08:47.657Z,-1.70
2022-11-19T03:11:27.170Z,-0.40
2022-11-19T03:14:33.690Z,-1.80
2022-11-19T03:17:25.532Z,-0.30
2022-11-19T03:22:28.502Z,-1.30
2022-11-19T03:25:20.358Z,-1.50
2022-11-19T03:27:50.878Z,-1.50
2022-11-19T03:30:20.007Z,-1.70
2022-11-19T03:35:19.425Z,-1.70
2022-11-19T03:37:52.633Z,-1.60
2022-11-19T03:40:22.660Z,-1.80
2022-11-19T03:42:53.195Z,-0.90
2022-11-19T03:45:28.435Z,-2.00
2022-11-19T03:47:57.343Z,-1.80
2022-11-19T03:50:37.812Z,-1.90
2022-11-19T03:53:04.896Z,-1.90
2022-11-19T03:55:37.137Z,-1.90
2022-11-19T03:58:06.220Z,-1.80
2022-11-19T04:03:01.197Z,-2.00
2022-11-19T04:07:55.306Z,-1.90
2022-11-19T04:10:22.152Z,-1.90
2022-11-19T04:15:16.774Z,-2.00
2022-11-19T04:20:11.420Z,-1.70
2022-11-19T04:25:05.985Z,-1.70
2022-11-19T04:27:32.865Z,-1.60
2022-11-19T04:29:59.718Z,-2.10
2022-11-19T04:32:27.085Z,-2.30
2022-11-19T04:37:21.211Z,-2.00
2022-11-19T04:39:48.031Z,-1.90
2022-11-19T04:47:09.687Z,-2.10
2022-11-19T04:52:04.177Z,-1.80
2022-11-19T04:54:30.999Z,-2.00
2022-11-19T04:56:57.862Z,-2.00
2022-11-19T04:59:24.698Z,-2.00
2022-11-19T05:01:52.237Z,-2.20
2022-11-19T05:04:19.167Z,-1.00
2022-11-19T05:06:46.032Z,-1.90
2022-11-19T05:11:40.337Z,-2.10
2022-11-19T05:14:07.190Z,-1.80
2022-11-19T05:16:34.108Z,-2.20
2022-11-19T05:23:55.460Z,-1.90
2022-11-19T05:28:49.522Z,-2.20
2022-11-19T05:31:16.397Z,-2.40
2022-11-19T05:33:43.301Z,-2.50
2022-11-19T05:36:10.287Z,-2.30
2022-11-19T05:43:31.685Z,-2.20
2022-11-19T05:46:02.821Z,-2.30
2022-11-19T05:53:24.420Z,-2.40
2022-11-19T05:55:51.256Z,-2.50
2022-11-19T05:58:18.106Z,-2.20
2022-11-19T06:00:44.980Z,-2.30
2022-11-19T06:05:40.702Z,-2.60
2022-11-19T06:08:08.069Z,-1.40
2022-11-19T06:10:34.908Z,-2.30
2022-11-19T06:17:57.208Z,-2.20
2022-11-19T06:20:24.304Z,-2.10
2022-11-19T06:22:52.007Z,-2.40
2022-11-19T06:25:19.259Z,-2.20
2022-11-19T06:27:46.206Z,-2.10
2022-11-19T06:30:14.139Z,-2.20
2022-11-19T06:35:08.804Z,-2.70
2022-11-19T06:37:36.038Z,-2.20
2022-11-19T06:40:03.945Z,-2.40
2022-11-19T06:45:04.979Z,-2.20
2022-11-19T06:47:32.806Z,-2.20
2022-11-19T06:49:59.910Z,-2.20
2022-11-19T06:52:27.288Z,-2.10
2022-11-19T06:54:54.147Z,-2.20
2022-11-19T06:57:21.046Z,-2.00
2022-11-19T07:04:48.107Z,-2.20
2022-11-19T07:07:15.031Z,-2.20
2022-11-19T07:09:42.049Z,-1.90
2022-11-19T07:12:09.728Z,-2.00
2022-11-19T07:14:36.654Z,-1.90
2022-11-19T07:19:32.461Z,-1.90
2022-11-19T07:24:26.881Z,-2.20
2022-11-19T07:26:55.264Z,-2.20
2022-11-19T07:31:51.033Z,-2.00
2022-11-19T07:34:18.394Z,-1.70
2022-11-19T07:36:46.108Z,-1.40
2022-11-19T07:39:13.398Z,-0.90
2022-11-19T07:41:58.842Z,-1.50
2022-11-19T07:46:53.411Z,-1.90
2022-11-19T07:49:20.991Z,-1.70
2022-11-19T07:54:15.703Z,-1.70
2022-11-19T08:01:37.546Z,-1.60
2022-11-19T08:04:05.309Z,-1.80
2022-11-19T08:09:03.967Z,-1.60
2022-11-19T08:11:31.418Z,-1.40
2022-11-19T08:14:01.963Z,-1.50
2022-11-19T08:16:48.492Z,-1.30
2022-11-19T08:19:16.807Z,-1.50
2022-11-19T08:21:45.781Z,-1.80
2022-11-19T08:24:13.982Z,-1.90
2022-11-19T08:26:41.144Z,-1.40
2022-11-19T08:29:14.666Z,-2.00
2022-11-19T08:31:45.049Z,-1.90
2022-11-19T08:34:11.972Z,-1.80
2022-11-19T08:39:06.854Z,-1.70
2022-11-19T08:46:47.749Z,-1.80
2022-11-19T08:51:42.293Z,-1.90
2022-11-19T08:59:04.266Z,0.30
2022-11-19T09:06:26.324Z,-0.90
2022-11-19T09:11:22.449Z,-0.80
2022-11-19T09:13:50.821Z,-0.80
2022-11-19T09:16:18.240Z,-0.40
2022-11-19T09:23:42.499Z,-0.80
2022-11-19T09:26:12.643Z,-0.80
2022-11-19T09:28:40.160Z,-1.00
2022-11-19T09:31:15.298Z,-1.10
2022-11-19T09:33:45.842Z,-0.70
2022-11-19T09:36:13.409Z,-0.90
2022-11-19T09:38:41.094Z,-1.20
2022-11-19T09:41:27.901Z,-0.50
2022-11-19T09:44:22.966Z,-0.70
2022-11-19T09:49:23.590Z,-1.20
2022-11-19T09:51:56.262Z,-1.50
2022-11-19T09:54:23.715Z,-1.50
2022-11-19T09:56:54.286Z,-1.70
2022-11-19T09:59:28.632Z,-1.80
2022-11-19T10:01:55.570Z,-1.60
2022-11-19T10:04:26.138Z,-1.80
2022-11-19T10:07:28.136Z,-1.80
2022-11-19T10:10:21.004Z,-1.60
2022-11-19T10:13:12.356Z,-1.90
2022-11-19T10:16:00.649Z,-1.60
2022-11-19T10:18:36.353Z,-1.60
2022-11-19T10:21:19.008Z,-1.80
2022-11-19T10:24:02.816Z,-1.60
2022-11-19T10:26:36.114Z,-1.90
2022-11-19T10:29:14.370Z,-1.80
2022-11-19T10:31:46.572Z,-1.90
2022-11-19T10:34:28.991Z,-1.50
2022-11-19T10:37:22.754Z,-0.70
2022-11-19T10:40:10.987Z,-1.70
2022-11-19T10:42:42.643Z,-0.90
2022-11-19T10:45:17.800Z,-1.30
2022-11-19T10:48:22.691Z,-1.50
2022-11-19T10:50:50.051Z,-1.60
2022-11-19T10:53:36.360Z,-1.60
2022-11-19T10:56:14.122Z,-1.90
2022-11-19T10:59:03.965Z,-2.00
2022-11-19T11:01:38.140Z,-2.10
2022-11-19T11:04:05.701Z,-1.70
2022-11-19T11:06:50.603Z,-0.80
2022-11-19T11:09:41.593Z,-2.00
2022-11-19T11:15:01.080Z,-2.20
2022-11-19T11:17:30.870Z,-2.10
2022-11-19T11:20:08.039Z,-2.00
2022-11-19T11:22:36.422Z,-2.00
2022-11-19T11:27:35.829Z,-2.00
2022-11-19T11:30:12.088Z,-1.90
2022-11-19T11:32:40.240Z,-1.50
2022-11-19T11:35:34.567Z,-0.50
2022-11-19T11:38:02.948Z,-1.40
2022-11-19T11:40:31.318Z,-1.50
2022-11-19T11:42:58.735Z,-1.60
2022-11-19T11:45:25.595Z,-1.80
2022-11-19T11:50:27.004Z,-1.00
2022-11-19T11:52:56.202Z,-1.70
2022-11-19T11:55:25.860Z,-1.80
2022-11-19T12:00:42.914Z,-1.30
2022-11-19T12:06:09.158Z,-2.00
2022-11-19T12:09:08.729Z,-1.70
2022-11-19T12:11:54.846Z,-1.90
2022-11-19T12:14:29.766Z,-1.60
2022-11-19T12:17:10.331Z,-1.10
2022-11-19T12:19:58.163Z,-1.40
2022-11-19T12:22:36.561Z,-0.90
2022-11-19T12:25:26.908Z,-1.10
2022-11-19T12:28:06.931Z,-1.30
2022-11-19T12:30:36.823Z,-1.40
2022-11-19T12:33:30.761Z,-0.50
2022-11-19T12:36:06.824Z,-1.60
2022-11-19T12:38:59.835Z,-1.80
2022-11-19T12:42:01.581Z,-1.80
2022-11-19T12:44:43.287Z,-1.90
2022-11-19T12:47:29.881Z,-1.90
2022-11-19T12:50:21.590Z,-1.80
2022-11-19T12:53:00.249Z,-1.70
2022-11-19T12:55:47.961Z,-2.00
2022-11-19T12:59:08.770Z,-1.60
2022-11-19T13:01:41.778Z,-1.60
2022-11-19T13:04:18.342Z,-1.70
2022-11-19T13:06:53.417Z,-2.10
2022-11-19T13:09:38.631Z,-2.10
2022-11-19T13:12:09.620Z,-2.60
2022-11-19T13:14:43.852Z,-2.20
2022-11-19T13:17:17.994Z,-2.10
2022-11-19T13:19:49.338Z,-1.90
2022-11-19T13:22:26.213Z,-2.00
2022-11-19T13:25:01.196Z,-2.10
2022-11-19T13:27:30.556Z,-2.00
2022-11-19T13:30:04.475Z,-2.10
2022-11-19T13:32:52.869Z,-2.00
2022-11-19T13:35:29.172Z,-2.10
2022-11-19T13:40:37.359Z,-2.00
2022-11-19T13:43:32.213Z,-2.50
2022-11-19T13:46:11.655Z,-2.30
2022-11-19T13:48:59.635Z,-2.20
2022-11-19T13:51:34.147Z,-3.20
2022-11-19T13:54:03.852Z,-2.20
2022-11-19T13:56:50.125Z,-2.10
2022-11-19T13:59:29.628Z,-2.10
2022-11-19T14:02:17.219Z,-2.00
2022-11-19T14:05:05.548Z,-1.70
2022-11-19T14:07:51.503Z,-2.20
2022-11-19T14:10:21.201Z,-2.10
2022-11-19T14:13:11.628Z,-2.50
2022-11-19T14:16:02.754Z,-2.40
2022-11-19T14:18:54.642Z,-2.20
2022-11-19T14:21:42.936Z,-2.20
2022-11-19T14:24:46.067Z,-2.00
2022-11-19T14:27:17.459Z,-2.10
2022-11-19T14:35:02.256Z,-1.90
2022-11-19T14:37:37.803Z,-2.00
2022-11-19T14:40:13.333Z,-1.50
2022-11-19T14:43:18.896Z,-2.10
2022-11-19T14:46:04.710Z,-1.90
2022-11-19T14:48:41.051Z,-2.00
2022-11-19T14:51:12.914Z,-1.80
2022-11-19T14:54:19.781Z,-2.20
2022-11-19T14:56:59.377Z,-1.90
2022-11-19T14:59:29.422Z,-2.00
2022-11-19T15:02:01.253Z,-1.80
2022-11-19T15:04:36.425Z,-2.10
2022-11-19T15:07:11.731Z,-2.10
2022-11-19T15:10:19.920Z,-2.00
2022-11-19T15:12:50.541Z,-1.80
2022-11-19T15:15:20.388Z,-2.00
2022-11-19T15:17:49.103Z,-2.20
2022-11-19T15:20:30.375Z,-2.20
2022-11-19T15:23:03.530Z,-2.10
2022-11-19T15:25:42.726Z,-2.30
2022-11-19T15:28:23.500Z,-1.90
2022-11-19T15:31:13.313Z,-1.80
2022-11-19T15:34:04.840Z,-1.60
2022-11-19T15:36:52.226Z,-1.90
2022-11-19T15:39:35.871Z,-1.70
2022-11-19T15:42:11.750Z,-1.60
2022-11-19T15:45:08.179Z,-1.80
2022-11-19T15:47:41.551Z,-1.80
2022-11-19T15:50:22.993Z,-1.80
2022-11-19T15:53:01.262Z,-1.70
2022-11-19T15:55:33.399Z,-0.80
2022-11-19T15:58:12.483Z,-1.90
2022-11-19T16:00:50.732Z,-2.00
2022-11-19T16:03:18.903Z,-2.00
2022-11-19T16:06:00.575Z,-2.20
2022-11-19T16:08:28.388Z,-1.90
2022-11-19T16:14:12.910Z,-1.70
2022-11-19T16:16:58.536Z,-2.00
2022-11-19T16:22:02.368Z,-1.80
2022-11-19T16:24:49.350Z,-2.00
2022-11-19T16:27:24.461Z,-1.90
2022-11-19T16:32:21.416Z,-2.00
2022-11-19T16:37:19.243Z,-1.90
2022-11-19T16:39:51.041Z,-2.20
2022-11-19T16:42:23.077Z,-2.20
2022-11-19T16:44:55.258Z,-2.20
2022-11-19T16:47:36.614Z,-1.90
2022-11-19T16:50:31.599Z,-1.90
2022-11-19T16:53:01.312Z,-2.50
2022-11-19T16:55:29.044Z,-1.90
2022-11-19T16:57:58.637Z,-2.10
2022-11-19T17:00:33.145Z,-2.40
2022-11-19T17:03:02.169Z,-2.00
2022-11-19T17:08:06.559Z,-2.20
2022-11-19T17:10:34.756Z,-2.20
2022-11-19T17:13:15.413Z,-2.50
2022-11-19T17:15:45.369Z,-2.30
2022-11-19T17:18:21.736Z,-2.20
2022-11-19T17:20:55.467Z,-2.40
2022-11-19T17:23:28.306Z,-2.40
2022-11-19T17:26:04.592Z,-2.40
2022-11-19T17:28:41.370Z,-2.40
2022-11-19T17:31:28.560Z,-2.50
2022-11-19T17:34:12.447Z,-2.60
2022-11-19T17:36:39.982Z,-2.60
2022-11-19T17:39:14.816Z,-2.80
2022-11-19T17:42:02.135Z,-3.00
2022-11-19T17:44:40.447Z,-2.70
2022-11-19T17:47:22.774Z,-2.60
2022-11-19T17:59:43.460Z,-2.70
2022-11-19T18:02:15.379Z,-2.60
2022-11-19T18:04:46.854Z,-2.40
2022-11-19T18:09:42.031Z,-2.90
2022-11-19T18:12:15.506Z,-2.80
2022-11-19T18:14:42.922Z,-2.90
2022-11-19T18:17:14.815Z,-2.90
2022-11-19T18:22:20.247Z,-2.90
2022-11-19T18:24:51.584Z,-2.80
2022-11-19T18:27:18.628Z,-3.00
2022-11-19T18:34:44.774Z,-3.00
2022-11-19T18:39:39.017Z,-3.00
2022-11-19T18:42:05.998Z,-3.10
2022-11-19T18:44:35.767Z,-3.00
2022-11-19T18:47:06.765Z,-2.80
2022-11-19T18:49:35.005Z,-2.60
2022-11-19T18:52:03.336Z,-3.00
2022-11-19T18:56:57.617Z,-3.20
2022-11-19T18:59:24.644Z,-3.00
2022-11-19T19:01:52.282Z,-3.20
2022-11-19T19:06:46.737Z,-3.20
2022-11-19T19:09:20.204Z,-3.20
2022-11-19T19:12:12.687Z,-3.20
2022-11-19T19:14:41.277Z,-3.10
2022-11-19T19:22:03.404Z,-3.30
2022-11-19T19:24:31.492Z,-3.30
2022-11-19T19:26:59.738Z,-3.40
2022-11-19T19:31:54.220Z,-3.40
2022-11-19T19:34:21.216Z,-3.10
2022-11-19T19:44:16.486Z,-3.00
2022-11-19T19:49:10.553Z,-3.00
2022-11-19T19:54:04.747Z,-2.80
2022-11-19T19:56:32.776Z,-3.30
2022-11-19T19:59:00.966Z,-2.90
2022-11-19T20:01:33.167Z,-3.50
2022-11-19T20:04:10.726Z,-3.50
2022-11-19T20:06:43.877Z,-3.50
2022-11-19T20:09:10.786Z,-3.70
2022-11-19T20:11:37.904Z,-3.40
2022-11-19T20:14:05.393Z,-3.50
2022-11-19T20:16:33.977Z,-3.30
2022-11-19T20:19:01.537Z,-3.60
2022-11-19T20:21:35.949Z,-3.40
2022-11-19T20:24:08.740Z,-3.50
2022-11-19T20:26:39.518Z,-3.90
2022-11-19T20:29:06.840Z,-3.20
2022-11-19T20:31:34.966Z,-3.50
2022-11-19T20:34:04.338Z,-3.50
2022-11-19T20:36:34.400Z,-3.70
2022-11-19T20:41:47.925Z,-3.90
2022-11-19T20:44:25.466Z,-3.80
2022-11-19T20:46:56.227Z,-3.80
2022-11-19T20:49:25.710Z,-3.70
2022-11-19T20:51:53.189Z,-3.80
2022-11-19T20:54:21.652Z,-3.70
2022-11-19T20:56:49.571Z,-3.60
2022-11-19T20:59:16.812Z,-3.80
2022-11-19T21:01:43.856Z,-3.60
2022-11-19T21:04:11.893Z,-3.50
2022-11-19T21:06:39.184Z,-3.50
2022-11-19T21:09:06.475Z,-3.70
2022-11-19T21:11:34.130Z,-3.70
2022-11-19T21:18:56.461Z,-3.90
2022-11-19T21:21:26.625Z,-3.70
2022-11-19T21:23:54.342Z,-3.60
2022-11-19T21:26:23.436Z,-4.00
2022-11-19T21:28:53.458Z,-4.00
2022-11-19T21:31:38.115Z,-3.80
2022-11-19T21:34:09.308Z,-3.40
2022-11-19T21:36:36.789Z,-3.90
2022-11-19T21:39:06.917Z,-3.70
2022-11-19T21:41:34.700Z,-3.80
2022-11-19T21:44:02.472Z,-3.10
2022-11-19T21:53:56.228Z,-3.70
2022-11-19T21:56:23.845Z,-3.90
2022-11-19T21:58:50.992Z,-4.20
2022-11-19T22:03:45.330Z,-3.80
2022-11-19T22:06:12.392Z,-4.50
2022-11-19T22:08:41.129Z,-3.70
2022-11-19T22:11:27.570Z,-3.90
2022-11-19T22:13:55.326Z,-3.90
2022-11-19T22:21:17.128Z,-3.70
2022-11-19T22:23:44.021Z,-4.00
2022-11-19T22:26:12.589Z,-4.00
2022-11-19T22:28:39.798Z,-3.80
2022-11-19T22:31:07.127Z,-4.00
2022-11-19T22:33:37.720Z,-4.00
2022-11-19T22:36:10.031Z,-4.10
2022-11-19T22:38:38.990Z,-4.30
2022-11-19T22:41:16.807Z,-4.10
2022-11-19T22:43:44.579Z,-4.30
2022-11-19T22:46:15.277Z,-4.30
2022-11-19T22:48:42.429Z,-4.30
2022-11-19T22:51:11.295Z,-4.40
2022-11-19T22:53:38.712Z,-4.40
2022-11-19T22:56:08.888Z,-4.30
2022-11-19T22:58:36.721Z,-4.40
2022-11-19T23:01:05.749Z,-4.30
2022-11-19T23:03:33.164Z,-4.40
2022-11-19T23:06:00.124Z,-4.10
2022-11-19T23:10:59.251Z,-3.50
2022-11-19T23:13:32.185Z,-4.20
2022-11-19T23:16:09.647Z,-4.40
2022-11-19T23:18:51.251Z,-4.70
2022-11-19T23:21:20.821Z,-4.10
2022-11-19T23:23:48.458Z,-3.10
2022-11-19T23:26:18.041Z,-4.20
2022-11-19T23:31:19.782Z,-4.00
2022-11-19T23:33:47.505Z,-4.60
2022-11-19T23:36:16.751Z,-4.10
2022-11-19T23:38:44.434Z,-3.90
2022-11-19T23:41:14.006Z,-4.10
2022-11-19T23:43:41.158Z,-2.60
2022-11-19T23:46:35.133Z,-4.20
2022-11-19T23:49:03.417Z,-4.10
2022-11-19T23:51:33.399Z,-4.20
2022-11-19T23:56:29.963Z,-4.10
